sensor_id;sensor_type;location;lat;lon;timestamp;P1;durP1;ratioP1;P2;durP2;ratioP2
50205;SDS011;36098;48.390;10.856;2024-01-06T00:01:14;3.10;;;1.80;;
50205;SDS011;36098;48.390;10.856;2024-01-06T00:03:42;5.35;;;2.20;;
50205;SDS011;36098;48.390;10.856;2024-01-06T00:06:10;4.93;;;2.40;;
50205;SDS011;36098;48.390;10.856;2024-01-06T00:08:36;5.00;;;2.25;;
50205;SDS011;36098;48.390;10.856;2024-01-06T00:11:02;4.60;;;2.10;;
50205;SDS011;36098;48.390;10.856;2024-01-06T00:13:28;4.88;;;2.20;;
50205;SDS011;36098;48.390;10.856;2024-01-06T00:15:53;3.10;;;1.92;;
50205;SDS011;36098;48.390;10.856;2024-01-06T00:18:18;4.05;;;2.10;;
50205;SDS011;36098;48.390;10.856;2024-01-06T00:20:43;3.15;;;2.08;;
50205;SDS011;36098;48.390;10.856;2024-01-06T00:23:09;4.45;;;2.10;;
50205;SDS011;36098;48.390;10.856;2024-01-06T00:25:34;4.40;;;1.70;;
50205;SDS011;36098;48.390;10.856;2024-01-06T00:27:59;3.95;;;2.30;;
50205;SDS011;36098;48.390;10.856;2024-01-06T00:30:25;3.60;;;1.98;;
50205;SDS011;36098;48.390;10.856;2024-01-06T00:32:50;4.95;;;2.15;;
50205;SDS011;36098;48.390;10.856;2024-01-06T00:35:15;2.47;;;1.95;;
50205;SDS011;36098;48.390;10.856;2024-01-06T00:37:41;3.90;;;1.95;;
50205;SDS011;36098;48.390;10.856;2024-01-06T00:40:06;3.80;;;2.13;;
50205;SDS011;36098;48.390;10.856;2024-01-06T00:42:32;4.03;;;2.10;;
50205;SDS011;36098;48.390;10.856;2024-01-06T00:44:57;3.13;;;2.00;;
50205;SDS011;36098;48.390;10.856;2024-01-06T00:47:22;2.63;;;2.03;;
50205;SDS011;36098;48.390;10.856;2024-01-06T00:49:49;3.15;;;2.00;;
50205;SDS011;36098;48.390;10.856;2024-01-06T00:52:14;4.90;;;2.13;;
50205;SDS011;36098;48.390;10.856;2024-01-06T00:54:40;3.80;;;2.00;;
50205;SDS011;36098;48.390;10.856;2024-01-06T00:57:05;5.65;;;2.17;;
50205;SDS011;36098;48.390;10.856;2024-01-06T00:59:30;4.07;;;2.33;;
50205;SDS011;36098;48.390;10.856;2024-01-06T01:01:55;4.00;;;1.83;;
50205;SDS011;36098;48.390;10.856;2024-01-06T01:04:21;3.30;;;1.90;;
50205;SDS011;36098;48.390;10.856;2024-01-06T01:06:46;3.75;;;2.25;;
50205;SDS011;36098;48.390;10.856;2024-01-06T01:09:12;3.80;;;2.08;;
50205;SDS011;36098;48.390;10.856;2024-01-06T01:11:39;3.50;;;2.20;;
50205;SDS011;36098;48.390;10.856;2024-01-06T01:14:04;2.85;;;1.67;;
50205;SDS011;36098;48.390;10.856;2024-01-06T01:16:29;2.83;;;1.90;;
50205;SDS011;36098;48.390;10.856;2024-01-06T01:18:57;3.38;;;1.98;;
50205;SDS011;36098;48.390;10.856;2024-01-06T01:21:22;3.40;;;2.00;;
50205;SDS011;36098;48.390;10.856;2024-01-06T01:23:47;2.58;;;1.80;;
50205;SDS011;36098;48.390;10.856;2024-01-06T01:26:12;2.58;;;1.85;;
50205;SDS011;36098;48.390;10.856;2024-01-06T01:28:38;3.35;;;1.98;;
50205;SDS011;36098;48.390;10.856;2024-01-06T01:31:03;3.22;;;2.00;;
50205;SDS011;36098;48.390;10.856;2024-01-06T01:33:28;2.88;;;1.90;;
50205;SDS011;36098;48.390;10.856;2024-01-06T01:35:53;2.67;;;2.00;;
50205;SDS011;36098;48.390;10.856;2024-01-06T01:38:19;2.53;;;1.90;;
50205;SDS011;36098;48.390;10.856;2024-01-06T01:40:44;2.95;;;1.80;;
50205;SDS011;36098;48.390;10.856;2024-01-06T01:43:19;4.60;;;2.10;;
50205;SDS011;36098;48.390;10.856;2024-01-06T01:45:45;3.75;;;1.92;;
50205;SDS011;36098;48.390;10.856;2024-01-06T01:48:15;3.42;;;2.10;;
50205;SDS011;36098;48.390;10.856;2024-01-06T01:50:40;4.28;;;2.00;;
50205;SDS011;36098;48.390;10.856;2024-01-06T01:53:05;4.32;;;2.05;;
50205;SDS011;36098;48.390;10.856;2024-01-06T01:55:31;3.00;;;2.20;;
50205;SDS011;36098;48.390;10.856;2024-01-06T01:57:56;2.78;;;1.83;;
50205;SDS011;36098;48.390;10.856;2024-01-06T02:00:22;2.70;;;1.70;;
50205;SDS011;36098;48.390;10.856;2024-01-06T02:02:47;2.75;;;2.00;;
50205;SDS011;36098;48.390;10.856;2024-01-06T02:05:13;2.83;;;1.70;;
50205;SDS011;36098;48.390;10.856;2024-01-06T02:07:38;3.20;;;2.15;;
50205;SDS011;36098;48.390;10.856;2024-01-06T02:10:04;2.60;;;2.03;;
50205;SDS011;36098;48.390;10.856;2024-01-06T02:12:29;2.88;;;1.92;;
50205;SDS011;36098;48.390;10.856;2024-01-06T02:14:55;2.30;;;1.90;;
50205;SDS011;36098;48.390;10.856;2024-01-06T02:17:20;4.47;;;1.90;;
50205;SDS011;36098;48.390;10.856;2024-01-06T02:19:45;3.58;;;1.98;;
50205;SDS011;36098;48.390;10.856;2024-01-06T02:22:11;3.42;;;1.92;;
50205;SDS011;36098;48.390;10.856;2024-01-06T02:24:37;3.03;;;1.90;;
50205;SDS011;36098;48.390;10.856;2024-01-06T02:27:02;2.78;;;1.60;;
50205;SDS011;36098;48.390;10.856;2024-01-06T02:29:27;3.40;;;2.03;;
50205;SDS011;36098;48.390;10.856;2024-01-06T02:31:53;2.83;;;2.08;;
50205;SDS011;36098;48.390;10.856;2024-01-06T02:34:18;2.67;;;1.80;;
50205;SDS011;36098;48.390;10.856;2024-01-06T02:36:43;2.72;;;1.85;;
50205;SDS011;36098;48.390;10.856;2024-01-06T02:39:09;2.30;;;1.70;;
50205;SDS011;36098;48.390;10.856;2024-01-06T02:41:34;3.58;;;1.92;;
50205;SDS011;36098;48.390;10.856;2024-01-06T02:43:59;3.40;;;1.90;;
50205;SDS011;36098;48.390;10.856;2024-01-06T02:46:27;2.40;;;1.60;;
50205;SDS011;36098;48.390;10.856;2024-01-06T02:48:53;2.30;;;1.58;;
50205;SDS011;36098;48.390;10.856;2024-01-06T02:51:18;2.65;;;1.70;;
50205;SDS011;36098;48.390;10.856;2024-01-06T02:53:43;3.67;;;1.88;;
50205;SDS011;36098;48.390;10.856;2024-01-06T02:56:12;2.47;;;1.75;;
50205;SDS011;36098;48.390;10.856;2024-01-06T02:58:37;2.53;;;1.65;;
50205;SDS011;36098;48.390;10.856;2024-01-06T03:01:03;2.22;;;1.38;;
50205;SDS011;36098;48.390;10.856;2024-01-06T03:03:28;2.75;;;1.77;;
50205;SDS011;36098;48.390;10.856;2024-01-06T03:05:53;2.05;;;1.50;;
50205;SDS011;36098;48.390;10.856;2024-01-06T03:08:19;2.85;;;1.65;;
50205;SDS011;36098;48.390;10.856;2024-01-06T03:10:44;2.80;;;1.60;;
50205;SDS011;36098;48.390;10.856;2024-01-06T03:13:09;2.40;;;1.50;;
50205;SDS011;36098;48.390;10.856;2024-01-06T03:15:34;3.10;;;1.90;;
50205;SDS011;36098;48.390;10.856;2024-01-06T03:18:00;2.22;;;1.63;;
50205;SDS011;36098;48.390;10.856;2024-01-06T03:20:25;3.45;;;1.60;;
50205;SDS011;36098;48.390;10.856;2024-01-06T03:22:51;1.90;;;1.23;;
50205;SDS011;36098;48.390;10.856;2024-01-06T03:25:16;1.98;;;1.48;;
50205;SDS011;36098;48.390;10.856;2024-01-06T03:27:41;2.40;;;1.45;;
50205;SDS011;36098;48.390;10.856;2024-01-06T03:30:06;2.42;;;1.67;;
50205;SDS011;36098;48.390;10.856;2024-01-06T03:32:32;2.10;;;1.63;;
50205;SDS011;36098;48.390;10.856;2024-01-06T03:34:58;2.10;;;1.50;;
50205;SDS011;36098;48.390;10.856;2024-01-06T03:37:23;2.30;;;1.60;;
50205;SDS011;36098;48.390;10.856;2024-01-06T03:39:49;3.22;;;1.67;;
50205;SDS011;36098;48.390;10.856;2024-01-06T03:42:14;1.98;;;1.38;;
50205;SDS011;36098;48.390;10.856;2024-01-06T03:44:39;1.98;;;1.38;;
50205;SDS011;36098;48.390;10.856;2024-01-06T03:47:05;1.98;;;1.60;;
50205;SDS011;36098;48.390;10.856;2024-01-06T03:49:30;1.92;;;1.30;;
50205;SDS011;36098;48.390;10.856;2024-01-06T03:51:55;2.40;;;1.50;;
50205;SDS011;36098;48.390;10.856;2024-01-06T03:54:21;2.22;;;1.45;;
50205;SDS011;36098;48.390;10.856;2024-01-06T03:56:46;1.70;;;1.30;;
50205;SDS011;36098;48.390;10.856;2024-01-06T03:59:11;2.10;;;1.50;;
50205;SDS011;36098;48.390;10.856;2024-01-06T04:01:37;2.25;;;1.33;;
50205;SDS011;36098;48.390;10.856;2024-01-06T04:04:02;1.90;;;1.40;;
50205;SDS011;36098;48.390;10.856;2024-01-06T04:06:28;1.70;;;1.23;;
50205;SDS011;36098;48.390;10.856;2024-01-06T04:08:53;1.60;;;1.08;;
50205;SDS011;36098;48.390;10.856;2024-01-06T04:11:20;1.85;;;1.20;;
50205;SDS011;36098;48.390;10.856;2024-01-06T04:13:45;1.98;;;1.30;;
50205;SDS011;36098;48.390;10.856;2024-01-06T04:16:10;1.80;;;1.17;;
50205;SDS011;36098;48.390;10.856;2024-01-06T04:18:36;3.15;;;1.38;;
50205;SDS011;36098;48.390;10.856;2024-01-06T04:21:01;2.08;;;1.40;;
50205;SDS011;36098;48.390;10.856;2024-01-06T04:23:26;2.50;;;1.35;;
50205;SDS011;36098;48.390;10.856;2024-01-06T04:25:51;1.80;;;1.30;;
50205;SDS011;36098;48.390;10.856;2024-01-06T04:28:17;2.38;;;1.10;;
50205;SDS011;36098;48.390;10.856;2024-01-06T04:30:42;1.65;;;1.20;;
50205;SDS011;36098;48.390;10.856;2024-01-06T04:33:08;2.30;;;1.25;;
50205;SDS011;36098;48.390;10.856;2024-01-06T04:35:33;1.80;;;1.23;;
50205;SDS011;36098;48.390;10.856;2024-01-06T04:37:58;3.40;;;1.60;;
50205;SDS011;36098;48.390;10.856;2024-01-06T04:40:23;2.25;;;1.10;;
50205;SDS011;36098;48.390;10.856;2024-01-06T04:42:49;2.15;;;1.25;;
50205;SDS011;36098;48.390;10.856;2024-01-06T04:45:14;1.55;;;1.20;;
50205;SDS011;36098;48.390;10.856;2024-01-06T04:47:39;1.75;;;1.20;;
50205;SDS011;36098;48.390;10.856;2024-01-06T04:50:05;2.17;;;1.10;;
50205;SDS011;36098;48.390;10.856;2024-01-06T04:52:30;3.95;;;1.23;;
50205;SDS011;36098;48.390;10.856;2024-01-06T04:54:56;1.50;;;1.20;;
50205;SDS011;36098;48.390;10.856;2024-01-06T04:57:21;1.42;;;1.10;;
50205;SDS011;36098;48.390;10.856;2024-01-06T04:59:46;1.75;;;1.08;;
50205;SDS011;36098;48.390;10.856;2024-01-06T05:02:11;1.83;;;1.30;;
50205;SDS011;36098;48.390;10.856;2024-01-06T05:04:37;3.15;;;1.40;;
50205;SDS011;36098;48.390;10.856;2024-01-06T05:07:02;3.33;;;1.30;;
50205;SDS011;36098;48.390;10.856;2024-01-06T05:09:28;1.40;;;1.10;;
50205;SDS011;36098;48.390;10.856;2024-01-06T05:11:53;2.30;;;1.20;;
50205;SDS011;36098;48.390;10.856;2024-01-06T05:14:18;1.63;;;1.05;;
50205;SDS011;36098;48.390;10.856;2024-01-06T05:16:43;2.22;;;1.30;;
50205;SDS011;36098;48.390;10.856;2024-01-06T05:19:09;1.73;;;0.90;;
50205;SDS011;36098;48.390;10.856;2024-01-06T05:21:34;3.25;;;1.23;;
50205;SDS011;36098;48.390;10.856;2024-01-06T05:24:00;2.38;;;1.30;;
50205;SDS011;36098;48.390;10.856;2024-01-06T05:26:25;2.70;;;1.42;;
50205;SDS011;36098;48.390;10.856;2024-01-06T05:28:51;2.38;;;1.40;;
50205;SDS011;36098;48.390;10.856;2024-01-06T05:31:16;1.63;;;1.00;;
50205;SDS011;36098;48.390;10.856;2024-01-06T05:33:42;2.45;;;1.30;;
50205;SDS011;36098;48.390;10.856;2024-01-06T05:36:07;1.55;;;1.02;;
50205;SDS011;36098;48.390;10.856;2024-01-06T05:38:33;2.13;;;1.20;;
50205;SDS011;36098;48.390;10.856;2024-01-06T05:40:58;1.52;;;1.00;;
50205;SDS011;36098;48.390;10.856;2024-01-06T05:43:23;2.15;;;1.00;;
50205;SDS011;36098;48.390;10.856;2024-01-06T05:45:49;2.22;;;1.20;;
50205;SDS011;36098;48.390;10.856;2024-01-06T05:48:14;1.50;;;1.02;;
50205;SDS011;36098;48.390;10.856;2024-01-06T05:50:40;1.65;;;1.15;;
50205;SDS011;36098;48.390;10.856;2024-01-06T05:53:05;2.42;;;1.40;;
50205;SDS011;36098;48.390;10.856;2024-01-06T05:55:31;3.05;;;1.00;;
50205;SDS011;36098;48.390;10.856;2024-01-06T05:57:57;1.80;;;1.10;;
50205;SDS011;36098;48.390;10.856;2024-01-06T06:00:22;1.20;;;0.93;;
50205;SDS011;36098;48.390;10.856;2024-01-06T06:02:47;1.90;;;1.13;;
50205;SDS011;36098;48.390;10.856;2024-01-06T06:05:13;1.67;;;1.00;;
50205;SDS011;36098;48.390;10.856;2024-01-06T06:07:38;2.17;;;1.10;;
50205;SDS011;36098;48.390;10.856;2024-01-06T06:10:07;1.58;;;1.10;;
50205;SDS011;36098;48.390;10.856;2024-01-06T06:12:34;1.40;;;1.00;;
50205;SDS011;36098;48.390;10.856;2024-01-06T06:14:59;2.83;;;1.20;;
50205;SDS011;36098;48.390;10.856;2024-01-06T06:17:25;1.20;;;1.00;;
50205;SDS011;36098;48.390;10.856;2024-01-06T06:19:50;1.65;;;1.00;;
50205;SDS011;36098;48.390;10.856;2024-01-06T06:22:16;2.03;;;0.90;;
50205;SDS011;36098;48.390;10.856;2024-01-06T06:24:41;1.25;;;0.88;;
50205;SDS011;36098;48.390;10.856;2024-01-06T06:27:06;1.63;;;0.88;;
50205;SDS011;36098;48.390;10.856;2024-01-06T06:29:32;1.67;;;1.00;;
50205;SDS011;36098;48.390;10.856;2024-01-06T06:31:57;2.60;;;1.30;;
50205;SDS011;36098;48.390;10.856;2024-01-06T06:34:23;1.88;;;1.00;;
50205;SDS011;36098;48.390;10.856;2024-01-06T06:36:48;1.48;;;1.00;;
50205;SDS011;36098;48.390;10.856;2024-01-06T06:39:13;1.13;;;0.98;;
50205;SDS011;36098;48.390;10.856;2024-01-06T06:41:39;0.93;;;0.80;;
50205;SDS011;36098;48.390;10.856;2024-01-06T06:44:04;1.60;;;1.00;;
50205;SDS011;36098;48.390;10.856;2024-01-06T06:46:29;1.95;;;1.02;;
50205;SDS011;36098;48.390;10.856;2024-01-06T06:48:55;1.73;;;0.93;;
50205;SDS011;36098;48.390;10.856;2024-01-06T06:51:20;1.10;;;0.88;;
50205;SDS011;36098;48.390;10.856;2024-01-06T06:53:49;3.05;;;1.23;;
50205;SDS011;36098;48.390;10.856;2024-01-06T06:56:15;1.30;;;0.80;;
50205;SDS011;36098;48.390;10.856;2024-01-06T06:58:42;1.33;;;0.90;;
50205;SDS011;36098;48.390;10.856;2024-01-06T07:01:07;1.15;;;0.88;;
50205;SDS011;36098;48.390;10.856;2024-01-06T07:03:32;1.92;;;0.88;;
50205;SDS011;36098;48.390;10.856;2024-01-06T07:05:57;1.00;;;0.80;;
50205;SDS011;36098;48.390;10.856;2024-01-06T07:08:23;2.00;;;1.10;;
50205;SDS011;36098;48.390;10.856;2024-01-06T07:10:48;2.22;;;1.00;;
50205;SDS011;36098;48.390;10.856;2024-01-06T07:13:13;1.13;;;0.90;;
50205;SDS011;36098;48.390;10.856;2024-01-06T07:15:38;1.23;;;0.95;;
50205;SDS011;36098;48.390;10.856;2024-01-06T07:18:04;1.60;;;0.75;;
50205;SDS011;36098;48.390;10.856;2024-01-06T07:20:29;1.27;;;0.82;;
50205;SDS011;36098;48.390;10.856;2024-01-06T07:22:54;0.93;;;0.80;;
50205;SDS011;36098;48.390;10.856;2024-01-06T07:25:19;1.02;;;0.85;;
50205;SDS011;36098;48.390;10.856;2024-01-06T07:27:45;1.30;;;0.80;;
50205;SDS011;36098;48.390;10.856;2024-01-06T07:30:10;2.22;;;0.98;;
50205;SDS011;36098;48.390;10.856;2024-01-06T07:32:36;1.45;;;0.80;;
50205;SDS011;36098;48.390;10.856;2024-01-06T07:35:01;1.48;;;0.93;;
50205;SDS011;36098;48.390;10.856;2024-01-06T07:37:27;1.10;;;0.88;;
50205;SDS011;36098;48.390;10.856;2024-01-06T07:39:52;1.58;;;0.90;;
50205;SDS011;36098;48.390;10.856;2024-01-06T07:42:18;1.17;;;0.73;;
50205;SDS011;36098;48.390;10.856;2024-01-06T07:44:43;1.60;;;0.95;;
50205;SDS011;36098;48.390;10.856;2024-01-06T07:47:09;0.90;;;0.75;;
50205;SDS011;36098;48.390;10.856;2024-01-06T07:49:34;1.38;;;0.95;;
50205;SDS011;36098;48.390;10.856;2024-01-06T07:52:00;1.55;;;0.80;;
50205;SDS011;36098;48.390;10.856;2024-01-06T07:54:25;1.40;;;0.80;;
50205;SDS011;36098;48.390;10.856;2024-01-06T07:56:50;2.55;;;0.90;;
50205;SDS011;36098;48.390;10.856;2024-01-06T07:59:16;1.13;;;0.75;;
50205;SDS011;36098;48.390;10.856;2024-01-06T08:01:41;1.25;;;0.80;;
50205;SDS011;36098;48.390;10.856;2024-01-06T08:04:07;0.98;;;0.70;;
50205;SDS011;36098;48.390;10.856;2024-01-06T08:06:33;1.00;;;0.70;;
50205;SDS011;36098;48.390;10.856;2024-01-06T08:08:59;1.60;;;0.90;;
50205;SDS011;36098;48.390;10.856;2024-01-06T08:11:24;1.50;;;0.90;;
50205;SDS011;36098;48.390;10.856;2024-01-06T08:13:49;1.40;;;0.90;;
50205;SDS011;36098;48.390;10.856;2024-01-06T08:16:14;0.82;;;0.70;;
50205;SDS011;36098;48.390;10.856;2024-01-06T08:18:40;1.38;;;0.70;;
50205;SDS011;36098;48.390;10.856;2024-01-06T08:21:05;1.58;;;0.85;;
50205;SDS011;36098;48.390;10.856;2024-01-06T08:23:31;0.93;;;0.63;;
50205;SDS011;36098;48.390;10.856;2024-01-06T08:25:56;3.53;;;1.02;;
50205;SDS011;36098;48.390;10.856;2024-01-06T08:28:22;1.38;;;0.88;;
50205;SDS011;36098;48.390;10.856;2024-01-06T08:30:48;3.78;;;0.98;;
50205;SDS011;36098;48.390;10.856;2024-01-06T08:33:14;2.40;;;1.02;;
50205;SDS011;36098;48.390;10.856;2024-01-06T08:35:39;4.70;;;1.23;;
50205;SDS011;36098;48.390;10.856;2024-01-06T08:38:08;7.00;;;1.30;;
50205;SDS011;36098;48.390;10.856;2024-01-06T08:40:34;3.65;;;0.82;;
50205;SDS011;36098;48.390;10.856;2024-01-06T08:43:00;1.15;;;0.77;;
50205;SDS011;36098;48.390;10.856;2024-01-06T08:45:25;3.33;;;0.90;;
50205;SDS011;36098;48.390;10.856;2024-01-06T08:47:50;1.60;;;0.75;;
50205;SDS011;36098;48.390;10.856;2024-01-06T08:50:16;1.38;;;1.00;;
50205;SDS011;36098;48.390;10.856;2024-01-06T08:52:41;1.55;;;0.80;;
50205;SDS011;36098;48.390;10.856;2024-01-06T08:55:06;1.48;;;0.80;;
50205;SDS011;36098;48.390;10.856;2024-01-06T08:57:32;7.03;;;1.17;;
50205;SDS011;36098;48.390;10.856;2024-01-06T08:59:57;4.25;;;0.98;;
50205;SDS011;36098;48.390;10.856;2024-01-06T09:02:23;1.65;;;0.82;;
50205;SDS011;36098;48.390;10.856;2024-01-06T09:04:49;2.05;;;1.00;;
50205;SDS011;36098;48.390;10.856;2024-01-06T09:07:14;3.90;;;0.98;;
50205;SDS011;36098;48.390;10.856;2024-01-06T09:09:39;1.88;;;0.90;;
50205;SDS011;36098;48.390;10.856;2024-01-06T09:12:04;1.52;;;0.80;;
50205;SDS011;36098;48.390;10.856;2024-01-06T09:14:30;2.75;;;0.80;;
50205;SDS011;36098;48.390;10.856;2024-01-06T09:16:55;2.58;;;0.88;;
50205;SDS011;36098;48.390;10.856;2024-01-06T09:19:21;1.13;;;0.80;;
50205;SDS011;36098;48.390;10.856;2024-01-06T09:21:46;2.45;;;1.00;;
50205;SDS011;36098;48.390;10.856;2024-01-06T09:24:12;1.90;;;0.90;;
50205;SDS011;36098;48.390;10.856;2024-01-06T09:26:37;1.63;;;1.00;;
50205;SDS011;36098;48.390;10.856;2024-01-06T09:29:02;1.98;;;0.90;;
50205;SDS011;36098;48.390;10.856;2024-01-06T09:31:29;3.05;;;1.00;;
50205;SDS011;36098;48.390;10.856;2024-01-06T09:33:54;3.97;;;1.20;;
50205;SDS011;36098;48.390;10.856;2024-01-06T09:36:20;1.10;;;0.77;;
50205;SDS011;36098;48.390;10.856;2024-01-06T09:38:45;2.90;;;1.00;;
50205;SDS011;36098;48.390;10.856;2024-01-06T09:41:11;2.03;;;0.88;;
50205;SDS011;36098;48.390;10.856;2024-01-06T09:43:36;2.55;;;0.90;;
50205;SDS011;36098;48.390;10.856;2024-01-06T09:46:15;2.38;;;0.82;;
50205;SDS011;36098;48.390;10.856;2024-01-06T09:48:46;2.53;;;1.00;;
50205;SDS011;36098;48.390;10.856;2024-01-06T09:51:14;6.57;;;1.40;;
50205;SDS011;36098;48.390;10.856;2024-01-06T09:53:47;1.92;;;0.90;;
50205;SDS011;36098;48.390;10.856;2024-01-06T09:56:17;5.00;;;1.20;;
50205;SDS011;36098;48.390;10.856;2024-01-06T09:58:43;4.43;;;1.08;;
50205;SDS011;36098;48.390;10.856;2024-01-06T10:01:10;3.38;;;1.20;;
50205;SDS011;36098;48.390;10.856;2024-01-06T10:03:36;2.20;;;1.00;;
50205;SDS011;36098;48.390;10.856;2024-01-06T10:06:02;6.80;;;1.35;;
50205;SDS011;36098;48.390;10.856;2024-01-06T10:08:29;4.90;;;1.55;;
50205;SDS011;36098;48.390;10.856;2024-01-06T10:10:54;10.18;;;1.48;;
50205;SDS011;36098;48.390;10.856;2024-01-06T10:13:20;5.32;;;1.40;;
50205;SDS011;36098;48.390;10.856;2024-01-06T10:15:45;4.15;;;1.20;;
50205;SDS011;36098;48.390;10.856;2024-01-06T10:18:11;3.53;;;1.38;;
50205;SDS011;36098;48.390;10.856;2024-01-06T10:20:37;11.07;;;1.33;;
50205;SDS011;36098;48.390;10.856;2024-01-06T10:23:06;5.57;;;1.42;;
50205;SDS011;36098;48.390;10.856;2024-01-06T10:25:31;5.57;;;1.30;;
50205;SDS011;36098;48.390;10.856;2024-01-06T10:27:57;7.22;;;1.23;;
50205;SDS011;36098;48.390;10.856;2024-01-06T10:30:26;7.45;;;1.42;;
50205;SDS011;36098;48.390;10.856;2024-01-06T10:32:51;6.07;;;1.20;;
50205;SDS011;36098;48.390;10.856;2024-01-06T10:35:17;3.45;;;1.33;;
50205;SDS011;36098;48.390;10.856;2024-01-06T10:37:43;2.90;;;1.10;;
50205;SDS011;36098;48.390;10.856;2024-01-06T10:40:13;7.47;;;1.40;;
50205;SDS011;36098;48.390;10.856;2024-01-06T10:42:43;5.53;;;1.45;;
50205;SDS011;36098;48.390;10.856;2024-01-06T10:45:10;6.57;;;1.25;;
50205;SDS011;36098;48.390;10.856;2024-01-06T10:47:37;18.52;;;1.75;;
50205;SDS011;36098;48.390;10.856;2024-01-06T10:50:05;5.20;;;1.50;;
50205;SDS011;36098;48.390;10.856;2024-01-06T10:52:32;16.50;;;1.75;;
50205;SDS011;36098;48.390;10.856;2024-01-06T10:54:59;8.38;;;1.40;;
50205;SDS011;36098;48.390;10.856;2024-01-06T10:57:25;7.63;;;1.40;;
50205;SDS011;36098;48.390;10.856;2024-01-06T10:59:53;6.25;;;1.35;;
50205;SDS011;36098;48.390;10.856;2024-01-06T11:02:18;8.75;;;1.42;;
50205;SDS011;36098;48.390;10.856;2024-01-06T11:04:45;4.65;;;1.40;;
50205;SDS011;36098;48.390;10.856;2024-01-06T11:07:11;4.57;;;1.52;;
50205;SDS011;36098;48.390;10.856;2024-01-06T11:09:39;7.80;;;1.85;;
50205;SDS011;36098;48.390;10.856;2024-01-06T11:12:13;7.75;;;1.80;;
50205;SDS011;36098;48.390;10.856;2024-01-06T11:14:38;7.70;;;1.60;;
50205;SDS011;36098;48.390;10.856;2024-01-06T11:17:04;5.57;;;1.90;;
50205;SDS011;36098;48.390;10.856;2024-01-06T11:22:20;12.40;;;2.13;;
50205;SDS011;36098;48.390;10.856;2024-01-06T11:24:50;7.53;;;1.70;;
50205;SDS011;36098;48.390;10.856;2024-01-06T11:27:18;16.13;;;2.55;;
50205;SDS011;36098;48.390;10.856;2024-01-06T11:29:45;9.05;;;2.05;;
50205;SDS011;36098;48.390;10.856;2024-01-06T11:32:30;8.38;;;2.33;;
50205;SDS011;36098;48.390;10.856;2024-01-06T11:35:10;8.85;;;2.08;;
50205;SDS011;36098;48.390;10.856;2024-01-06T11:42:45;9.98;;;2.33;;
50205;SDS011;36098;48.390;10.856;2024-01-06T11:45:12;14.70;;;2.10;;
50205;SDS011;36098;48.390;10.856;2024-01-06T11:47:38;15.23;;;2.42;;
50205;SDS011;36098;48.390;10.856;2024-01-06T11:50:04;14.07;;;2.60;;
50205;SDS011;36098;48.390;10.856;2024-01-06T11:52:30;14.07;;;2.33;;
50205;SDS011;36098;48.390;10.856;2024-01-06T11:54:57;9.98;;;2.28;;
50205;SDS011;36098;48.390;10.856;2024-01-06T11:57:24;9.93;;;2.30;;
50205;SDS011;36098;48.390;10.856;2024-01-06T11:59:50;11.30;;;2.60;;
50205;SDS011;36098;48.390;10.856;2024-01-06T12:02:17;13.55;;;3.15;;
50205;SDS011;36098;48.390;10.856;2024-01-06T12:04:47;13.48;;;3.20;;
50205;SDS011;36098;48.390;10.856;2024-01-06T12:07:16;9.82;;;2.53;;
50205;SDS011;36098;48.390;10.856;2024-01-06T12:09:42;14.02;;;2.70;;
50205;SDS011;36098;48.390;10.856;2024-01-06T12:12:07;11.38;;;2.50;;
50205;SDS011;36098;48.390;10.856;2024-01-06T12:14:34;12.55;;;3.00;;
50205;SDS011;36098;48.390;10.856;2024-01-06T12:16:59;8.65;;;3.22;;
50205;SDS011;36098;48.390;10.856;2024-01-06T12:19:29;13.63;;;3.97;;
50205;SDS011;36098;48.390;10.856;2024-01-06T12:21:57;10.07;;;3.15;;
50205;SDS011;36098;48.390;10.856;2024-01-06T12:24:23;12.52;;;3.83;;
50205;SDS011;36098;48.390;10.856;2024-01-06T12:26:49;12.30;;;4.00;;
50205;SDS011;36098;48.390;10.856;2024-01-06T12:29:14;10.82;;;3.42;;
50205;SDS011;36098;48.390;10.856;2024-01-06T12:31:40;6.78;;;2.65;;
50205;SDS011;36098;48.390;10.856;2024-01-06T12:34:06;7.90;;;3.17;;
50205;SDS011;36098;48.390;10.856;2024-01-06T12:36:38;8.05;;;2.90;;
50205;SDS011;36098;48.390;10.856;2024-01-06T12:39:04;10.60;;;3.17;;
50205;SDS011;36098;48.390;10.856;2024-01-06T12:41:30;14.02;;;3.78;;
50205;SDS011;36098;48.390;10.856;2024-01-06T12:43:58;10.57;;;2.50;;
50205;SDS011;36098;48.390;10.856;2024-01-06T12:46:24;8.50;;;3.35;;
50205;SDS011;36098;48.390;10.856;2024-01-06T12:48:49;10.48;;;3.10;;
50205;SDS011;36098;48.390;10.856;2024-01-06T12:51:14;10.68;;;3.00;;
50205;SDS011;36098;48.390;10.856;2024-01-06T12:53:39;11.05;;;3.05;;
50205;SDS011;36098;48.390;10.856;2024-01-06T12:56:05;9.75;;;3.63;;
50205;SDS011;36098;48.390;10.856;2024-01-06T12:58:32;9.13;;;2.83;;
50205;SDS011;36098;48.390;10.856;2024-01-06T13:00:58;7.38;;;3.15;;
50205;SDS011;36098;48.390;10.856;2024-01-06T13:03:23;10.23;;;3.33;;
50205;SDS011;36098;48.390;10.856;2024-01-06T13:05:48;8.57;;;3.05;;
50205;SDS011;36098;48.390;10.856;2024-01-06T13:08:14;7.47;;;3.30;;
50205;SDS011;36098;48.390;10.856;2024-01-06T13:10:39;8.77;;;2.80;;
50205;SDS011;36098;48.390;10.856;2024-01-06T13:13:04;8.25;;;3.13;;
50205;SDS011;36098;48.390;10.856;2024-01-06T13:15:30;9.60;;;2.90;;
50205;SDS011;36098;48.390;10.856;2024-01-06T13:17:55;7.22;;;2.90;;
50205;SDS011;36098;48.390;10.856;2024-01-06T13:20:22;5.63;;;2.92;;
50205;SDS011;36098;48.390;10.856;2024-01-06T13:22:47;7.70;;;3.30;;
50205;SDS011;36098;48.390;10.856;2024-01-06T13:25:12;6.50;;;3.53;;
50205;SDS011;36098;48.390;10.856;2024-01-06T13:27:38;8.48;;;3.30;;
50205;SDS011;36098;48.390;10.856;2024-01-06T13:30:03;6.90;;;2.95;;
50205;SDS011;36098;48.390;10.856;2024-01-06T13:32:29;5.18;;;2.95;;
50205;SDS011;36098;48.390;10.856;2024-01-06T13:34:55;7.65;;;3.17;;
50205;SDS011;36098;48.390;10.856;2024-01-06T13:37:26;8.43;;;3.03;;
50205;SDS011;36098;48.390;10.856;2024-01-06T13:39:52;10.05;;;3.00;;
50205;SDS011;36098;48.390;10.856;2024-01-06T13:42:18;5.80;;;2.50;;
50205;SDS011;36098;48.390;10.856;2024-01-06T13:44:43;6.40;;;2.72;;
50205;SDS011;36098;48.390;10.856;2024-01-06T13:47:09;7.53;;;3.08;;
50205;SDS011;36098;48.390;10.856;2024-01-06T13:49:34;6.00;;;2.63;;
50205;SDS011;36098;48.390;10.856;2024-01-06T13:51:59;5.57;;;2.42;;
50205;SDS011;36098;48.390;10.856;2024-01-06T13:54:25;5.68;;;2.92;;
50205;SDS011;36098;48.390;10.856;2024-01-06T13:56:50;5.20;;;2.40;;
50205;SDS011;36098;48.390;10.856;2024-01-06T13:59:16;5.30;;;2.13;;
50205;SDS011;36098;48.390;10.856;2024-01-06T14:01:42;5.13;;;2.22;;
50205;SDS011;36098;48.390;10.856;2024-01-06T14:04:08;5.45;;;2.08;;
50205;SDS011;36098;48.390;10.856;2024-01-06T14:06:33;5.80;;;2.47;;
50205;SDS011;36098;48.390;10.856;2024-01-06T14:08:59;7.00;;;2.40;;
50205;SDS011;36098;48.390;10.856;2024-01-06T14:11:25;6.20;;;2.40;;
50205;SDS011;36098;48.390;10.856;2024-01-06T14:13:51;8.77;;;2.50;;
50205;SDS011;36098;48.390;10.856;2024-01-06T14:16:17;6.30;;;2.50;;
50205;SDS011;36098;48.390;10.856;2024-01-06T14:18:43;5.22;;;2.28;;
50205;SDS011;36098;48.390;10.856;2024-01-06T14:21:09;7.45;;;2.05;;
50205;SDS011;36098;48.390;10.856;2024-01-06T14:23:35;5.40;;;1.95;;
50205;SDS011;36098;48.390;10.856;2024-01-06T14:26:00;8.40;;;2.15;;
50205;SDS011;36098;48.390;10.856;2024-01-06T14:28:26;4.35;;;2.30;;
50205;SDS011;36098;48.390;10.856;2024-01-06T14:30:51;4.65;;;2.35;;
50205;SDS011;36098;48.390;10.856;2024-01-06T14:33:17;5.25;;;1.95;;